Terminal Aerodrome Forecast
Issued by NWS Grand Forks, ND

Home | Current Version | Previous Version | Graphics & Text | Print | Product List | Glossary On
Versions: 1 2 3 4 5 6 7 8 9 10 11 12 13 14 15 16 17 18 19 20 21 22 23
064
FTUS43 KFGF 162137 AAD
TAFGFK
TAF AMD
KGFK 162137Z 1622/1718 VRB04KT P6SM FEW020 BKN250
      TEMPO 1622/1702 BKN015
     FM170200 23004KT P6SM BKN060
     FM170600 21006KT P6SM SCT150=

USA.gov is the U.S. government's official web portal to all federal, state and local government web resources and services.